createdAt,value
2022-11-15T00:00:57.450Z,44.70
2022-11-15T00:03:26.364Z,47.30
2022-11-15T00:05:53.524Z,49.53
2022-11-15T00:08:20.570Z,44.88
2022-11-15T00:13:23.363Z,45.80
2022-11-15T00:15:49.977Z,44.90
2022-11-15T00:18:17.645Z,47.53
2022-11-15T00:20:44.220Z,45.17
2022-11-15T00:23:10.841Z,47.88
2022-11-15T00:25:37.377Z,41.58
2022-11-15T00:28:04.328Z,47.08
2022-11-15T00:32:57.445Z,46.03
2022-11-15T00:35:23.945Z,45.70
2022-11-15T00:37:50.460Z,47.35
2022-11-15T00:40:17.381Z,52.90
2022-11-15T00:42:43.861Z,48.47
2022-11-15T00:45:10.603Z,47.50
2022-11-15T00:47:37.116Z,53.35
2022-11-15T00:50:04.155Z,52.60
2022-11-15T00:54:57.166Z,51.75
2022-11-15T00:57:23.752Z,52.53
2022-11-15T00:59:50.275Z,56.28
2022-11-15T01:02:16.757Z,56.60
2022-11-15T01:04:43.375Z,50.03
2022-11-15T01:07:09.891Z,72.03
2022-11-15T01:09:36.497Z,55.70
2022-11-15T01:12:03.237Z,55.05
2022-11-15T01:14:30.447Z,53.70
2022-11-15T01:16:56.991Z,54.25
2022-11-15T01:19:23.518Z,54.90
2022-11-15T01:21:51.182Z,55.05
2022-11-15T01:24:18.041Z,56.13
2022-11-15T01:26:44.671Z,56.30
2022-11-15T01:29:11.171Z,55.13
2022-11-15T01:31:37.803Z,54.30
2022-11-15T01:34:04.639Z,54.00
2022-11-15T01:36:31.155Z,54.47
2022-11-15T01:38:59.427Z,53.70
2022-11-15T01:41:32.094Z,55.85
2022-11-15T01:44:29.415Z,54.47
2022-11-15T01:46:56.691Z,52.35
2022-11-15T01:49:24.797Z,52.03
2022-11-15T01:51:52.467Z,55.53
2022-11-15T01:54:22.197Z,56.67
2022-11-15T01:57:10.853Z,53.97
2022-11-15T01:59:41.052Z,53.55
2022-11-15T02:02:23.234Z,53.92
2022-11-15T02:04:49.738Z,55.17
2022-11-15T02:07:19.510Z,56.30
2022-11-15T02:09:46.868Z,52.63
2022-11-15T02:12:18.638Z,54.40
2022-11-15T02:14:49.740Z,56.17
2022-11-15T02:17:43.043Z,51.55
2022-11-15T02:20:44.542Z,56.25
2022-11-15T02:23:23.166Z,53.25
2022-11-15T02:25:55.608Z,56.22
2022-11-15T02:28:25.093Z,52.90
2022-11-15T02:31:09.931Z,54.80
2022-11-15T02:33:59.162Z,55.13
2022-11-15T02:36:38.649Z,52.78
2022-11-15T02:39:47.464Z,53.38
2022-11-15T02:42:55.238Z,51.92
2022-11-15T02:45:45.489Z,51.85
2022-11-15T02:48:13.330Z,50.63
2022-11-15T02:50:39.997Z,49.70
2022-11-15T02:53:08.729Z,53.33
2022-11-15T02:55:44.524Z,47.83
2022-11-15T02:58:32.670Z,46.60
2022-11-15T03:01:21.989Z,48.47
2022-11-15T03:03:54.205Z,49.33
2022-11-15T03:06:32.806Z,48.28
2022-11-15T03:08:59.384Z,53.92
2022-11-15T03:11:26.451Z,52.97
2022-11-15T03:16:39.484Z,46.38
2022-11-15T03:19:17.275Z,48.65
2022-11-15T03:21:45.141Z,52.95
2022-11-15T03:24:14.761Z,48.90
2022-11-15T03:26:43.714Z,48.78
2022-11-15T03:29:16.218Z,46.35
2022-11-15T03:31:52.288Z,46.63
2022-11-15T03:34:27.839Z,48.22
2022-11-15T03:36:54.934Z,44.97
2022-11-15T03:42:10.317Z,42.95
2022-11-15T03:45:21.220Z,47.35
2022-11-15T03:47:54.305Z,45.83
2022-11-15T03:50:23.631Z,44.65
2022-11-15T03:52:51.097Z,45.75
2022-11-15T03:55:21.991Z,48.42
2022-11-15T03:57:51.115Z,41.90
2022-11-15T04:00:17.950Z,42.92
2022-11-15T04:02:44.526Z,44.35
2022-11-15T04:05:11.070Z,43.63
2022-11-15T04:07:37.732Z,42.42
2022-11-15T04:15:08.403Z,43.65
2022-11-15T04:17:40.314Z,41.72
2022-11-15T04:20:28.037Z,43.92
2022-11-15T04:23:17.957Z,40.65
2022-11-15T04:25:45.358Z,41.53
2022-11-15T04:28:12.765Z,42.30
2022-11-15T04:30:39.782Z,43.15
2022-11-15T04:35:32.762Z,39.30
2022-11-15T04:38:00.367Z,41.08
2022-11-15T04:40:27.065Z,43.83
2022-11-15T04:42:53.576Z,41.17
2022-11-15T04:45:20.387Z,43.00
2022-11-15T04:47:47.412Z,42.97
2022-11-15T04:52:50.851Z,41.60
2022-11-15T04:55:17.430Z,40.00
2022-11-15T04:57:44.139Z,44.78
2022-11-15T05:00:15.668Z,40.05
2022-11-15T05:03:00.721Z,42.47
2022-11-15T05:05:27.273Z,45.70
2022-11-15T05:07:53.869Z,43.90
2022-11-15T05:10:20.399Z,39.67
2022-11-15T05:12:47.801Z,41.30
2022-11-15T05:15:14.344Z,39.90
2022-11-15T05:17:40.894Z,38.80
2022-11-15T05:20:08.099Z,38.72
2022-11-15T05:22:34.705Z,40.88
2022-11-15T05:25:01.294Z,39.40
2022-11-15T05:27:27.970Z,39.45
2022-11-15T05:29:54.452Z,40.67
2022-11-15T05:32:21.857Z,41.35
2022-11-15T05:34:48.563Z,40.15
2022-11-15T05:37:15.540Z,39.67
2022-11-15T05:42:12.654Z,39.30
2022-11-15T05:44:41.889Z,42.83
2022-11-15T05:47:13.713Z,42.15
2022-11-15T05:49:43.508Z,37.90
2022-11-15T05:52:14.252Z,43.05
2022-11-15T05:54:41.499Z,38.33
2022-11-15T05:57:08.356Z,39.88
2022-11-15T05:59:38.477Z,37.20
2022-11-15T06:02:05.014Z,39.17
2022-11-15T06:04:31.777Z,39.28
2022-11-15T06:06:59.933Z,39.15
2022-11-15T06:09:26.546Z,41.15
2022-11-15T06:11:53.403Z,40.90
2022-11-15T06:14:19.987Z,43.35
2022-11-15T06:16:46.554Z,40.30
2022-11-15T06:19:13.098Z,42.55
2022-11-15T06:21:39.681Z,42.50
2022-11-15T06:24:06.990Z,45.40
2022-11-15T06:26:33.524Z,46.25
2022-11-15T06:29:00.170Z,41.63
2022-11-15T06:31:26.615Z,39.97
2022-11-15T06:33:53.118Z,45.60
2022-11-15T06:36:19.628Z,44.10
2022-11-15T06:38:46.186Z,44.25
2022-11-15T06:41:14.295Z,41.72
2022-11-15T06:43:42.015Z,45.78
2022-11-15T06:46:08.676Z,46.60
2022-11-15T06:48:35.673Z,46.88
2022-11-15T06:56:00.107Z,41.25
2022-11-15T06:58:26.527Z,40.35
2022-11-15T07:00:53.109Z,42.80
2022-11-15T07:03:19.594Z,42.78
2022-11-15T07:05:56.869Z,43.53
2022-11-15T07:08:24.662Z,45.75
2022-11-15T07:10:51.598Z,47.08
2022-11-15T07:13:18.321Z,42.67
2022-11-15T07:15:44.922Z,42.53
2022-11-15T07:18:11.371Z,42.60
2022-11-15T07:20:37.840Z,50.05
2022-11-15T07:23:05.870Z,56.05
2022-11-15T07:25:32.712Z,45.30
2022-11-15T07:30:27.980Z,47.90
2022-11-15T07:32:56.397Z,44.88
2022-11-15T07:35:23.826Z,43.47
2022-11-15T07:38:01.724Z,44.50
2022-11-15T07:40:30.306Z,45.33
2022-11-15T07:43:03.920Z,45.20
2022-11-15T07:45:30.420Z,41.13
2022-11-15T07:47:57.352Z,43.58
2022-11-15T07:52:58.897Z,45.67
2022-11-15T07:55:26.571Z,43.60
2022-11-15T07:57:53.054Z,41.30
2022-11-15T08:00:20.463Z,46.65
2022-11-15T08:02:47.126Z,40.80
2022-11-15T08:05:14.721Z,42.40
2022-11-15T08:07:41.319Z,44.75
2022-11-15T08:10:09.003Z,41.85
2022-11-15T08:12:35.854Z,40.22
2022-11-15T08:15:02.531Z,44.30
2022-11-15T08:17:32.976Z,39.90
2022-11-15T08:19:59.901Z,43.05
2022-11-15T08:22:26.398Z,41.63
2022-11-15T08:24:52.898Z,40.78
2022-11-15T08:27:19.597Z,39.28
2022-11-15T08:29:46.749Z,40.33
2022-11-15T08:32:13.254Z,38.22
2022-11-15T08:34:39.788Z,39.58
2022-11-15T08:37:06.798Z,38.72
2022-11-15T08:49:19.652Z,35.38
2022-11-15T08:51:46.122Z,37.30
2022-11-15T08:54:12.599Z,34.28
2022-11-15T08:56:39.086Z,33.20
2022-11-15T08:59:05.607Z,32.97
2022-11-15T09:01:33.662Z,30.20
2022-11-15T09:04:00.289Z,29.90
2022-11-15T09:06:26.734Z,27.83
2022-11-15T09:08:53.407Z,33.95
2022-11-15T09:13:48.877Z,28.15
2022-11-15T09:16:16.284Z,29.98
2022-11-15T09:18:43.065Z,28.25
2022-11-15T09:21:10.219Z,29.05
2022-11-15T09:23:36.749Z,31.75
2022-11-15T09:26:05.091Z,27.55
2022-11-15T09:28:32.660Z,28.98
2022-11-15T09:31:00.803Z,27.23
2022-11-15T09:33:28.291Z,26.23
2022-11-15T09:35:55.497Z,29.50
2022-11-15T09:38:21.974Z,25.75
2022-11-15T09:40:58.192Z,26.77
2022-11-15T09:43:27.393Z,33.15
2022-11-15T09:46:16.198Z,24.33
2022-11-15T09:48:42.592Z,27.42
2022-11-15T09:51:16.728Z,26.50
2022-11-15T09:56:51.927Z,23.20
2022-11-15T09:59:36.072Z,22.25
2022-11-15T10:02:28.882Z,24.42
2022-11-15T10:04:55.450Z,21.98
2022-11-15T10:07:25.830Z,24.27
2022-11-15T10:09:58.082Z,23.83
2022-11-15T10:12:26.102Z,20.17
2022-11-15T10:15:02.801Z,18.95
2022-11-15T10:17:38.358Z,22.15
2022-11-15T10:20:13.497Z,19.75
2022-11-15T10:22:41.649Z,18.77
2022-11-15T10:25:19.040Z,16.95
2022-11-15T10:27:52.559Z,19.52
2022-11-15T10:30:19.880Z,40.10
2022-11-15T10:32:48.585Z,29.35
2022-11-15T10:35:29.755Z,18.38
2022-11-15T10:38:10.766Z,18.40
2022-11-15T10:40:38.751Z,18.13
2022-11-15T10:43:11.212Z,19.30
2022-11-15T10:45:38.319Z,18.13
2022-11-15T10:48:13.699Z,16.45
2022-11-15T10:50:42.886Z,17.40
2022-11-15T10:53:18.577Z,18.92
2022-11-15T10:55:49.621Z,17.15
2022-11-15T10:58:35.728Z,17.23
2022-11-15T11:01:11.323Z,19.80
2022-11-15T11:03:39.487Z,20.05
2022-11-15T11:06:13.267Z,18.83
2022-11-15T11:08:40.360Z,21.25
2022-11-15T11:11:08.743Z,20.08
2022-11-15T11:13:40.193Z,20.15
2022-11-15T11:16:12.428Z,21.40
2022-11-15T11:19:16.594Z,19.52
2022-11-15T11:22:04.459Z,25.92
2022-11-15T11:24:52.822Z,24.27
2022-11-15T11:27:48.422Z,23.23
2022-11-15T11:30:21.553Z,24.10
2022-11-15T11:32:55.457Z,24.73
2022-11-15T11:35:30.328Z,22.33
2022-11-15T11:38:16.478Z,22.05
2022-11-15T11:41:14.682Z,21.77
2022-11-15T11:44:03.077Z,24.85
2022-11-15T11:47:00.680Z,23.55
2022-11-15T11:49:45.733Z,22.55
2022-11-15T11:52:27.818Z,23.27
2022-11-15T11:54:54.226Z,21.80
2022-11-15T11:57:30.451Z,22.83
2022-11-15T12:00:06.275Z,83.45
2022-11-15T12:02:43.024Z,32.83
2022-11-15T12:05:32.137Z,23.60
2022-11-15T12:08:26.862Z,23.70
2022-11-15T12:11:02.237Z,20.58
2022-11-15T12:13:34.872Z,21.27
2022-11-15T12:16:13.623Z,21.48
2022-11-15T12:18:45.637Z,22.65
2022-11-15T12:21:35.877Z,21.00
2022-11-15T12:24:28.701Z,24.38
2022-11-15T12:27:02.776Z,22.17
2022-11-15T12:29:53.286Z,22.60
2022-11-15T12:32:33.950Z,21.92
2022-11-15T12:35:02.428Z,24.13
2022-11-15T12:37:43.934Z,21.90
2022-11-15T12:40:10.549Z,21.02
2022-11-15T12:42:57.638Z,20.98
2022-11-15T12:45:29.579Z,21.08
2022-11-15T12:48:33.281Z,22.92
2022-11-15T12:51:00.897Z,21.17
2022-11-15T12:53:34.977Z,22.83
2022-11-15T12:56:04.474Z,20.35
2022-11-15T12:58:43.067Z,21.58
2022-11-15T13:01:10.601Z,23.92
2022-11-15T13:04:09.170Z,21.88
2022-11-15T13:06:42.725Z,21.52
2022-11-15T13:09:30.927Z,22.08
2022-11-15T13:11:59.340Z,21.73
2022-11-15T13:14:38.001Z,21.02
2022-11-15T13:17:21.352Z,20.55
2022-11-15T13:20:07.095Z,20.75
2022-11-15T13:23:05.937Z,19.95
2022-11-15T13:25:50.701Z,22.25
2022-11-15T13:28:17.107Z,23.40
2022-11-15T13:30:55.558Z,22.63
2022-11-15T13:33:29.313Z,22.02
2022-11-15T13:36:02.380Z,23.65
2022-11-15T13:38:31.812Z,23.98
2022-11-15T13:41:00.217Z,22.02
2022-11-15T13:43:31.944Z,23.85
2022-11-15T13:46:10.652Z,21.60
2022-11-15T13:48:37.300Z,22.88
2022-11-15T13:51:14.697Z,22.90
2022-11-15T13:53:47.439Z,22.95
2022-11-15T13:56:16.764Z,24.20
2022-11-15T13:58:43.747Z,23.88
2022-11-15T14:03:56.391Z,24.25
2022-11-15T14:06:26.225Z,21.88
2022-11-15T14:09:09.988Z,23.05
2022-11-15T14:11:36.861Z,25.48
2022-11-15T14:14:09.226Z,23.83
2022-11-15T14:16:41.287Z,24.52
2022-11-15T14:19:12.297Z,22.67
2022-11-15T14:21:58.749Z,25.50
2022-11-15T14:24:31.410Z,24.77
2022-11-15T14:26:57.984Z,25.30
2022-11-15T14:29:29.942Z,23.65
2022-11-15T14:32:25.002Z,23.25
2022-11-15T14:34:59.663Z,24.67
2022-11-15T14:37:28.772Z,24.30
2022-11-15T14:39:56.147Z,27.13
2022-11-15T14:42:24.113Z,29.48
2022-11-15T14:44:51.005Z,24.48
2022-11-15T14:47:18.001Z,26.83
2022-11-15T14:52:35.340Z,25.00
2022-11-15T14:55:03.951Z,26.38
2022-11-15T14:57:31.201Z,25.85
2022-11-15T14:59:58.006Z,24.83
2022-11-15T15:02:26.295Z,27.98
2022-11-15T15:04:53.072Z,26.27
2022-11-15T15:07:20.108Z,27.83
2022-11-15T15:09:47.387Z,27.30
2022-11-15T15:12:24.215Z,27.85
2022-11-15T15:17:18.692Z,26.45
2022-11-15T15:19:45.226Z,28.00
2022-11-15T15:22:16.503Z,27.90
2022-11-15T15:24:44.256Z,26.40
2022-11-15T15:27:11.496Z,28.13
2022-11-15T15:29:38.315Z,27.00
2022-11-15T15:32:05.941Z,28.65
2022-11-15T15:34:33.069Z,31.00
2022-11-15T15:37:26.800Z,27.25
2022-11-15T15:39:55.531Z,28.10
2022-11-15T15:42:23.545Z,34.85
2022-11-15T15:44:50.930Z,26.98
2022-11-15T15:47:20.340Z,26.63
2022-11-15T15:49:47.568Z,28.92
2022-11-15T15:52:14.230Z,27.35
2022-11-15T15:54:41.475Z,28.00
2022-11-15T15:57:09.646Z,30.00
2022-11-15T15:59:36.181Z,28.48
2022-11-15T16:02:07.837Z,27.05
2022-11-15T16:04:35.204Z,27.90
2022-11-15T16:07:02.009Z,29.15
2022-11-15T16:09:51.541Z,28.50
2022-11-15T16:12:18.122Z,27.58
2022-11-15T16:14:44.571Z,30.05
2022-11-15T16:17:20.996Z,28.63
2022-11-15T16:19:47.436Z,30.90
2022-11-15T16:22:13.915Z,26.67
2022-11-15T16:24:40.512Z,28.25
2022-11-15T16:27:14.419Z,29.23
2022-11-15T16:29:40.878Z,27.95
2022-11-15T16:32:07.421Z,31.63
2022-11-15T16:34:39.967Z,29.42
2022-11-15T16:37:22.483Z,34.70
2022-11-15T16:39:49.283Z,37.90
2022-11-15T16:42:15.862Z,38.13
2022-11-15T16:44:44.480Z,39.05
2022-11-15T16:47:20.365Z,41.47
2022-11-15T16:49:47.345Z,48.40
2022-11-15T16:54:46.871Z,40.30
2022-11-15T16:57:13.280Z,37.53
2022-11-15T16:59:39.733Z,35.83
2022-11-15T17:02:12.597Z,36.50
2022-11-15T17:04:39.351Z,33.40
2022-11-15T17:07:06.817Z,39.10
2022-11-15T17:09:34.304Z,37.53
2022-11-15T17:12:00.786Z,35.13
2022-11-15T17:14:27.479Z,35.58
2022-11-15T17:16:55.532Z,38.08
2022-11-15T17:19:22.077Z,36.00
2022-11-15T17:21:51.957Z,39.20
2022-11-15T17:24:20.824Z,34.60
2022-11-15T17:26:47.326Z,37.60
2022-11-15T17:29:13.759Z,35.50
2022-11-15T17:31:40.207Z,37.47
2022-11-15T17:34:07.133Z,35.85
2022-11-15T17:36:34.580Z,37.85
2022-11-15T17:39:01.367Z,34.58
2022-11-15T17:41:29.174Z,36.05
2022-11-15T17:43:58.236Z,35.58
2022-11-15T17:46:25.019Z,36.03
2022-11-15T17:48:51.483Z,37.03
2022-11-15T17:51:22.170Z,36.03
2022-11-15T17:53:49.233Z,36.67
2022-11-15T17:58:49.160Z,38.38
2022-11-15T18:01:23.463Z,36.50
2022-11-15T18:03:50.548Z,33.85
2022-11-15T18:06:22.572Z,44.55
2022-11-15T18:08:50.775Z,39.50
2022-11-15T18:11:24.317Z,39.72
2022-11-15T18:13:53.974Z,35.97
2022-11-15T18:16:22.565Z,33.85
2022-11-15T18:18:49.111Z,33.15
2022-11-15T18:21:20.145Z,33.70
2022-11-15T18:23:46.917Z,33.90
2022-11-15T18:26:15.294Z,34.03
2022-11-15T18:28:47.118Z,35.15
2022-11-15T18:31:19.641Z,35.30
2022-11-15T18:33:46.123Z,37.33
2022-11-15T18:36:17.697Z,35.95
2022-11-15T18:38:44.291Z,34.38
2022-11-15T18:41:12.008Z,33.45
2022-11-15T18:43:39.733Z,38.35
2022-11-15T18:46:18.243Z,35.47
2022-11-15T18:48:45.603Z,38.88
2022-11-15T18:51:14.650Z,35.90
2022-11-15T18:53:42.806Z,34.65
2022-11-15T18:56:20.789Z,37.08
2022-11-15T18:58:49.413Z,36.00
2022-11-15T19:01:20.461Z,37.63
2022-11-15T19:03:49.881Z,35.05
2022-11-15T19:06:28.008Z,35.70
2022-11-15T19:08:56.431Z,32.17
2022-11-15T19:11:31.374Z,32.03
2022-11-15T19:13:57.855Z,33.60
2022-11-15T19:16:24.508Z,34.25
2022-11-15T19:18:56.069Z,32.90
2022-11-15T19:21:23.271Z,31.35
2022-11-15T19:23:49.873Z,33.80
2022-11-15T19:26:19.307Z,31.60
2022-11-15T19:28:50.352Z,34.85
2022-11-15T19:31:17.833Z,30.77
2022-11-15T19:33:45.319Z,29.75
2022-11-15T19:36:14.457Z,29.55
2022-11-15T19:38:41.729Z,28.73
2022-11-15T19:41:19.644Z,30.75
2022-11-15T19:43:48.005Z,31.08
2022-11-15T19:46:15.658Z,32.47
2022-11-15T19:48:42.830Z,31.10
2022-11-15T19:51:15.007Z,29.42
2022-11-15T19:53:42.510Z,30.10
2022-11-15T19:56:14.613Z,28.92
2022-11-15T19:58:41.711Z,30.88
2022-11-15T20:03:39.527Z,28.52
2022-11-15T20:08:35.062Z,31.15
2022-11-15T20:11:03.290Z,29.92
2022-11-15T20:13:29.782Z,31.83
2022-11-15T20:15:56.654Z,37.40
2022-11-15T20:18:24.937Z,31.88
2022-11-15T20:20:52.119Z,29.15
2022-11-15T20:23:18.894Z,31.10
2022-11-15T20:25:46.708Z,33.10
2022-11-15T20:28:25.434Z,28.77
2022-11-15T20:30:57.369Z,31.00
2022-11-15T20:33:24.083Z,32.40
2022-11-15T20:35:53.422Z,31.70
2022-11-15T20:38:21.221Z,31.58
2022-11-15T20:40:48.956Z,33.38
2022-11-15T20:43:17.825Z,31.77
2022-11-15T20:45:46.134Z,37.80
2022-11-15T20:48:15.985Z,33.00
2022-11-15T20:50:44.254Z,31.95
2022-11-15T20:53:12.500Z,27.80
2022-11-15T20:55:41.369Z,33.33
2022-11-15T20:58:08.939Z,28.30
2022-11-15T21:00:36.862Z,27.90
2022-11-15T21:03:06.893Z,32.38
2022-11-15T21:05:39.349Z,30.77
2022-11-15T21:08:06.501Z,28.80
2022-11-15T21:10:51.899Z,26.98
2022-11-15T21:13:18.629Z,27.45
2022-11-15T21:15:45.095Z,25.60
2022-11-15T21:18:11.573Z,25.50
2022-11-15T21:20:38.149Z,24.38
2022-11-15T21:23:04.725Z,25.27
2022-11-15T21:25:32.943Z,26.70
2022-11-15T21:27:59.382Z,23.75
2022-11-15T21:30:26.204Z,29.75
2022-11-15T21:32:52.733Z,25.73
2022-11-15T21:35:21.396Z,24.00
2022-11-15T21:37:53.346Z,22.42
2022-11-15T21:40:22.821Z,21.38
2022-11-15T21:42:49.376Z,22.70
2022-11-15T21:45:15.876Z,22.55
2022-11-15T21:47:46.034Z,21.00
2022-11-15T21:50:13.434Z,21.80
2022-11-15T21:52:40.795Z,22.23
2022-11-15T21:55:08.177Z,23.08
2022-11-15T21:57:34.744Z,23.83
2022-11-15T22:00:20.235Z,23.08
2022-11-15T22:02:46.912Z,22.60
2022-11-15T22:05:13.537Z,22.40
2022-11-15T22:07:40.100Z,21.65
2022-11-15T22:10:06.889Z,23.00
2022-11-15T22:12:33.440Z,21.77
2022-11-15T22:15:00.016Z,21.02
2022-11-15T22:17:46.509Z,19.35
2022-11-15T22:20:37.753Z,20.42
2022-11-15T22:22:59.982Z,20.85
2022-11-15T22:27:54.601Z,20.58
2022-11-15T22:30:21.556Z,20.58
2022-11-15T22:32:48.580Z,20.27
2022-11-15T22:40:11.718Z,20.52
2022-11-15T22:42:38.228Z,20.13
2022-11-15T22:45:05.157Z,21.42
2022-11-15T22:49:58.173Z,20.50
2022-11-15T22:52:24.702Z,19.58
2022-11-15T22:54:51.402Z,18.75
2022-11-15T22:57:17.884Z,19.30
2022-11-15T22:59:44.547Z,19.60
2022-11-15T23:02:11.133Z,21.27
2022-11-15T23:04:37.677Z,20.83
2022-11-15T23:07:04.278Z,18.70
2022-11-15T23:09:33.829Z,19.05
2022-11-15T23:12:18.667Z,22.00
2022-11-15T23:14:45.234Z,21.77
2022-11-15T23:17:11.759Z,20.70
2022-11-15T23:19:38.217Z,19.20
2022-11-15T23:22:23.400Z,20.55
2022-11-15T23:24:51.637Z,20.02
2022-11-15T23:27:20.128Z,21.20
2022-11-15T23:30:06.156Z,19.35
2022-11-15T23:32:52.098Z,18.02
2022-11-15T23:35:18.610Z,16.98
2022-11-15T23:37:45.284Z,20.15
2022-11-15T23:40:13.808Z,17.20
2022-11-15T23:42:43.282Z,18.15
2022-11-15T23:45:10.200Z,17.95
2022-11-15T23:47:36.666Z,17.60
2022-11-15T23:50:04.064Z,16.58
2022-11-15T23:52:30.925Z,17.85
2022-11-15T23:54:57.394Z,17.20
2022-11-15T23:57:23.925Z,19.20
2022-11-15T23:59:50.401Z,17.85
